Time;durP1;ratioP1;P1;durP2;ratioP2;P2;SDS_P1;SDS_P2;PMS_P1;PMS_P2;Temp;Humidity;BMP_temperature;BMP_pressure;BME280_temperature;BME280_humidity;BME280_pressure;Samples;Min_cycle;Max_cycle;Signal;HPM_P1;HPM_P2
2023/11/20 00:01:41;;;;;;;2.92;2.00;;;;;;;;;;5024087;28;21208;-57
2023/11/20 00:04:07;;;;;;;2.92;1.75;;;;;;;;;;5023923;28;20030;-57
2023/11/20 00:06:32;;;;;;;3.05;1.70;;;;;;;;;;5022581;28;20047;-58
2023/11/20 00:08:57;;;;;;;3.35;1.80;;;;;;;;;;5028741;28;20052;-57
2023/11/20 00:11:23;;;;;;;3.20;1.83;;;;;;;;;;5029359;28;20531;-57
2023/11/20 00:13:48;;;;;;;3.30;1.50;;;;;;;;;;5010551;28;20428;-56
2023/11/20 00:16:13;;;;;;;2.37;1.30;;;;;;;;;;5028111;28;20147;-56
2023/11/20 00:18:39;;;;;;;3.10;1.77;;;;;;;;;;5027949;28;20307;-56
2023/11/20 00:21:04;;;;;;;2.88;1.80;;;;;;;;;;5028522;28;20037;-57
2023/11/20 00:23:30;;;;;;;2.67;1.55;;;;;;;;;;5030457;28;20048;-57
2023/11/20 00:25:55;;;;;;;3.13;1.80;;;;;;;;;;5010309;28;20029;-57
2023/11/20 00:28:20;;;;;;;3.67;1.77;;;;;;;;;;5029244;28;20143;-56
2023/11/20 00:30:45;;;;;;;2.70;1.50;;;;;;;;;;5028365;28;20037;-55
2023/11/20 00:33:11;;;;;;;2.97;1.77;;;;;;;;;;5028267;28;20811;-55
2023/11/20 00:35:36;;;;;;;2.80;1.90;;;;;;;;;;5027542;28;20299;-55
2023/11/20 00:38:02;;;;;;;2.30;1.70;;;;;;;;;;5028934;28;20326;-55
2023/11/20 00:40:27;;;;;;;2.60;1.75;;;;;;;;;;5028748;28;20808;-55
2023/11/20 00:42:53;;;;;;;2.60;1.70;;;;;;;;;;5028043;28;20124;-55
2023/11/20 00:45:18;;;;;;;3.00;1.80;;;;;;;;;;5027471;28;20037;-56
2023/11/20 00:47:43;;;;;;;2.70;1.80;;;;;;;;;;5027597;28;20288;-55
2023/11/20 00:50:09;;;;;;;3.10;1.97;;;;;;;;;;5027353;28;20829;-56
2023/11/20 00:52:35;;;;;;;3.33;1.60;;;;;;;;;;5027363;28;20378;-55
2023/11/20 00:55:00;;;;;;;2.97;1.80;;;;;;;;;;5026894;28;20533;-56
2023/11/20 00:57:27;;;;;;;3.33;1.95;;;;;;;;;;5027403;28;20058;-55
2023/11/20 00:59:52;;;;;;;3.92;2.15;;;;;;;;;;5009463;28;20462;-55
2023/11/20 01:02:18;;;;;;;2.72;1.60;;;;;;;;;;5023052;28;20049;-54
2023/11/20 01:04:43;;;;;;;3.45;1.98;;;;;;;;;;5026756;28;20564;-55
2023/11/20 01:07:08;;;;;;;2.37;1.77;;;;;;;;;;5026444;28;20029;-56
2023/11/20 01:09:33;;;;;;;3.37;1.53;;;;;;;;;;5010444;28;20284;-56
2023/11/20 01:11:59;;;;;;;3.80;1.75;;;;;;;;;;5029331;28;20405;-56
2023/11/20 01:14:24;;;;;;;2.88;2.00;;;;;;;;;;5027210;28;20112;-55
2023/11/20 01:16:49;;;;;;;3.22;1.90;;;;;;;;;;5025873;28;20519;-55
2023/11/20 01:19:15;;;;;;;4.38;1.90;;;;;;;;;;5028009;28;20033;-56
2023/11/20 01:21:42;;;;;;;2.80;1.88;;;;;;;;;;5027156;28;20045;-56
2023/11/20 01:24:07;;;;;;;2.95;1.88;;;;;;;;;;5026641;28;20507;-56
2023/11/20 01:26:32;;;;;;;3.00;1.55;;;;;;;;;;5007940;28;20103;-55
2023/11/20 01:28:58;;;;;;;2.43;1.53;;;;;;;;;;5035865;28;20041;-55
2023/11/20 01:31:24;;;;;;;2.50;1.58;;;;;;;;;;5027219;28;20650;-54
2023/11/20 01:33:50;;;;;;;2.80;1.70;;;;;;;;;;5026889;28;20051;-54
2023/11/20 01:36:15;;;;;;;3.00;1.85;;;;;;;;;;5007944;28;20053;-55
2023/11/20 01:38:41;;;;;;;2.90;1.90;;;;;;;;;;5031964;28;20041;-55
2023/11/20 01:41:07;;;;;;;2.30;1.40;;;;;;;;;;5037421;28;20033;-56
2023/11/20 01:43:32;;;;;;;2.50;1.50;;;;;;;;;;5035022;28;20053;-55
2023/11/20 01:45:59;;;;;;;2.80;1.80;;;;;;;;;;5025949;28;20461;-56
2023/11/20 01:48:24;;;;;;;2.30;1.60;;;;;;;;;;5025903;28;20107;-55
2023/11/20 01:50:49;;;;;;;2.40;1.52;;;;;;;;;;5008808;28;20037;-55
2023/11/20 01:53:15;;;;;;;3.22;1.95;;;;;;;;;;5025617;28;20033;-56
2023/11/20 01:55:40;;;;;;;3.00;1.88;;;;;;;;;;5007969;28;20050;-56
2023/11/20 01:58:05;;;;;;;2.50;1.58;;;;;;;;;;5004895;28;20518;-56
2023/11/20 02:00:32;;;;;;;2.60;1.70;;;;;;;;;;5025186;28;20045;-60
2023/11/20 02:02:57;;;;;;;3.65;1.63;;;;;;;;;;5026211;28;20037;-55
2023/11/20 02:05:22;;;;;;;2.75;1.48;;;;;;;;;;5025741;28;20033;-56
2023/11/20 02:07:48;;;;;;;2.58;1.58;;;;;;;;;;5025347;28;20464;-55
2023/11/20 02:10:13;;;;;;;2.97;1.70;;;;;;;;;;5026351;28;20530;-55
2023/11/20 02:12:39;;;;;;;2.90;1.90;;;;;;;;;;5026998;28;20033;-55
2023/11/20 02:15:05;;;;;;;2.97;1.80;;;;;;;;;;5007776;28;20061;-55
2023/11/20 02:17:31;;;;;;;2.95;1.60;;;;;;;;;;5022811;28;20061;-55
2023/11/20 02:19:56;;;;;;;3.33;2.10;;;;;;;;;;5026039;28;20049;-56
2023/11/20 02:22:22;;;;;;;2.78;1.58;;;;;;;;;;5025625;28;20051;-55
2023/11/20 02:24:47;;;;;;;3.45;1.80;;;;;;;;;;5007998;28;20158;-55
2023/11/20 02:27:12;;;;;;;2.38;1.33;;;;;;;;;;5025930;28;20052;-55
2023/11/20 02:29:52;;;;;;;2.80;1.70;;;;;;;;;;5026399;28;20044;-55
2023/11/20 02:32:17;;;;;;;2.95;1.80;;;;;;;;;;5007751;28;20378;-55
2023/11/20 02:34:43;;;;;;;2.67;1.48;;;;;;;;;;5025006;28;20100;-55
2023/11/20 02:37:08;;;;;;;2.47;1.75;;;;;;;;;;5025287;28;20042;-56
2023/11/20 02:39:34;;;;;;;2.25;1.60;;;;;;;;;;5025629;28;20124;-55
2023/11/20 02:42:00;;;;;;;2.83;1.70;;;;;;;;;;5025677;28;20044;-55
2023/11/20 02:44:25;;;;;;;2.85;1.55;;;;;;;;;;5031688;28;20553;-56
2023/11/20 02:46:50;;;;;;;3.40;1.70;;;;;;;;;;5024235;28;20048;-55
2023/11/20 02:49:16;;;;;;;3.03;1.80;;;;;;;;;;5025015;28;20509;-56
2023/11/20 02:51:42;;;;;;;2.65;1.35;;;;;;;;;;4990089;28;20084;-56
2023/11/20 02:54:07;;;;;;;2.72;1.90;;;;;;;;;;5025073;28;21083;-57
2023/11/20 02:56:33;;;;;;;2.38;1.60;;;;;;;;;;5024279;28;20041;-56
2023/11/20 02:58:58;;;;;;;2.70;1.50;;;;;;;;;;5032355;28;20034;-56
2023/11/20 03:01:23;;;;;;;1.92;1.23;;;;;;;;;;5025121;28;20709;-55
2023/11/20 03:03:48;;;;;;;3.00;1.60;;;;;;;;;;5025749;28;20218;-55
2023/11/20 03:06:14;;;;;;;2.00;1.50;;;;;;;;;;5027657;28;20805;-56
2023/11/20 03:08:39;;;;;;;2.45;1.60;;;;;;;;;;5024623;28;20648;-55
2023/11/20 03:11:04;;;;;;;2.88;1.75;;;;;;;;;;5025011;28;20045;-56
2023/11/20 03:13:29;;;;;;;2.80;1.50;;;;;;;;;;5034514;28;20033;-55
2023/11/20 03:15:56;;;;;;;2.40;1.60;;;;;;;;;;5025082;28;20142;-55
2023/11/20 03:18:21;;;;;;;2.80;1.63;;;;;;;;;;5024069;28;20288;-55
2023/11/20 03:20:46;;;;;;;2.17;1.25;;;;;;;;;;5006999;28;20411;-56
2023/11/20 03:23:13;;;;;;;2.63;1.60;;;;;;;;;;5032303;28;20030;-56
2023/11/20 03:25:38;;;;;;;2.53;1.40;;;;;;;;;;5028847;28;20280;-57
2023/11/20 03:28:03;;;;;;;2.50;1.40;;;;;;;;;;5028048;28;20044;-57
2023/11/20 03:30:29;;;;;;;1.92;1.30;;;;;;;;;;5024708;28;20101;-57
2023/11/20 03:32:54;;;;;;;2.20;1.40;;;;;;;;;;5024308;28;20056;-57
2023/11/20 03:35:21;;;;;;;2.80;1.50;;;;;;;;;;5024930;28;20068;-56
2023/11/20 03:37:46;;;;;;;2.17;1.50;;;;;;;;;;5024038;28;20303;-57
2023/11/20 03:40:12;;;;;;;2.97;1.50;;;;;;;;;;5024426;28;20108;-57
2023/11/20 03:42:37;;;;;;;2.55;1.55;;;;;;;;;;5023923;28;20281;-58
2023/11/20 03:45:02;;;;;;;2.10;1.17;;;;;;;;;;5024327;28;20034;-56
2023/11/20 03:47:28;;;;;;;3.10;1.60;;;;;;;;;;5026213;28;20358;-56
2023/11/20 03:49:53;;;;;;;2.40;1.40;;;;;;;;;;5010235;28;20896;-56
2023/11/20 03:52:18;;;;;;;2.70;1.63;;;;;;;;;;5024195;28;20131;-55
2023/11/20 03:54:43;;;;;;;2.65;1.55;;;;;;;;;;5024123;28;20694;-55
2023/11/20 03:57:09;;;;;;;2.38;1.30;;;;;;;;;;5025916;28;20049;-55
2023/11/20 03:59:34;;;;;;;2.10;1.50;;;;;;;;;;5024192;28;20049;-56
2023/11/20 04:01:59;;;;;;;2.20;1.20;;;;;;;;;;5024527;28;20126;-56
2023/11/20 04:04:25;;;;;;;2.10;1.50;;;;;;;;;;5024336;28;20052;-55
2023/11/20 04:06:50;;;;;;;2.97;1.53;;;;;;;;;;5023851;28;20670;-56
2023/11/20 04:09:16;;;;;;;1.83;1.42;;;;;;;;;;5005730;28;20273;-56
2023/11/20 04:11:41;;;;;;;2.50;1.40;;;;;;;;;;5024239;28;20037;-55
2023/11/20 04:14:06;;;;;;;2.55;1.30;;;;;;;;;;5026840;28;20061;-55
2023/11/20 04:16:32;;;;;;;2.50;1.42;;;;;;;;;;5019829;28;20199;-55
2023/11/20 04:18:57;;;;;;;2.35;1.30;;;;;;;;;;5009936;28;20038;-54
2023/11/20 04:21:22;;;;;;;2.13;1.40;;;;;;;;;;5023367;28;20466;-56
2023/11/20 04:23:48;;;;;;;2.43;1.27;;;;;;;;;;5023810;28;20092;-55
2023/11/20 04:26:13;;;;;;;2.17;1.27;;;;;;;;;;5023480;28;20816;-55
2023/11/20 04:28:38;;;;;;;2.72;1.50;;;;;;;;;;5007544;28;20325;-56
2023/11/20 04:31:04;;;;;;;2.17;1.42;;;;;;;;;;5006304;28;20125;-55
2023/11/20 04:33:29;;;;;;;2.10;1.33;;;;;;;;;;5023780;28;20136;-55
2023/11/20 04:35:55;;;;;;;2.30;1.30;;;;;;;;;;5023206;28;20148;-55
2023/11/20 04:38:28;;;;;;;2.67;1.63;;;;;;;;;;5022823;28;20483;-56
2023/11/20 04:40:54;;;;;;;2.75;1.30;;;;;;;;;;5023433;28;20500;-55
2023/11/20 04:43:19;;;;;;;1.95;1.40;;;;;;;;;;5023290;28;20071;-55
2023/11/20 04:45:45;;;;;;;2.20;1.25;;;;;;;;;;5023244;28;20073;-55
2023/11/20 04:48:10;;;;;;;2.97;1.23;;;;;;;;;;5021458;28;20473;-56
2023/11/20 04:50:36;;;;;;;2.03;1.30;;;;;;;;;;5021145;28;20095;-55
2023/11/20 04:53:01;;;;;;;1.98;1.10;;;;;;;;;;5023615;28;20091;-55
2023/11/20 04:55:27;;;;;;;2.22;1.30;;;;;;;;;;5029618;28;20037;-55
2023/11/20 04:57:53;;;;;;;2.10;1.30;;;;;;;;;;5031127;28;20117;-55
2023/11/20 05:00:18;;;;;;;2.00;1.23;;;;;;;;;;5025595;28;20120;-55
2023/11/20 05:02:44;;;;;;;2.08;1.27;;;;;;;;;;5027357;28;20125;-55
2023/11/20 05:05:10;;;;;;;2.38;1.40;;;;;;;;;;5027211;28;20045;-55
2023/11/20 05:07:35;;;;;;;2.25;1.40;;;;;;;;;;5026583;28;20041;-55
2023/11/20 05:10:00;;;;;;;1.90;1.30;;;;;;;;;;5008872;28;20120;-56
2023/11/20 05:12:26;;;;;;;2.40;1.30;;;;;;;;;;5024558;28;20511;-55
2023/11/20 05:14:51;;;;;;;1.83;1.30;;;;;;;;;;5021166;28;20065;-55
2023/11/20 05:17:20;;;;;;;2.00;1.20;;;;;;;;;;5026159;28;20075;-55
2023/11/20 05:19:45;;;;;;;2.50;1.70;;;;;;;;;;5024808;28;20304;-56
2023/11/20 05:22:11;;;;;;;2.22;1.25;;;;;;;;;;5026861;28;20029;-56
2023/11/20 05:24:36;;;;;;;1.77;1.08;;;;;;;;;;5025936;28;20037;-56
2023/11/20 05:27:02;;;;;;;2.03;1.10;;;;;;;;;;5024144;28;20033;-55
2023/11/20 05:29:28;;;;;;;2.22;1.30;;;;;;;;;;5026103;28;20044;-55
2023/11/20 05:31:54;;;;;;;2.03;1.20;;;;;;;;;;5026828;28;20112;-56
2023/11/20 05:34:19;;;;;;;1.88;0.90;;;;;;;;;;5043343;28;20139;-55
2023/11/20 05:36:44;;;;;;;1.75;1.05;;;;;;;;;;5008446;28;20041;-55
2023/11/20 05:39:10;;;;;;;2.50;1.48;;;;;;;;;;5008245;28;20117;-55
2023/11/20 05:41:35;;;;;;;2.40;1.38;;;;;;;;;;5026461;28;20464;-55
2023/11/20 05:44:00;;;;;;;1.50;1.10;;;;;;;;;;5031167;28;20795;-55
2023/11/20 05:46:26;;;;;;;2.00;1.30;;;;;;;;;;5007333;28;20280;-55
2023/11/20 05:48:51;;;;;;;2.75;1.50;;;;;;;;;;5024086;28;20120;-56
2023/11/20 05:51:17;;;;;;;1.93;1.50;;;;;;;;;;5035386;28;20029;-54
2023/11/20 05:53:43;;;;;;;2.13;1.20;;;;;;;;;;5025200;28;20276;-54
2023/11/20 05:56:12;;;;;;;4.07;0.98;;;;;;;;;;5024469;28;20596;-55
2023/11/20 05:58:38;;;;;;;3.00;1.10;;;;;;;;;;5021882;28;20029;-55
2023/11/20 06:01:03;;;;;;;2.73;1.20;;;;;;;;;;5025280;28;20056;-54
2023/11/20 06:03:28;;;;;;;1.70;1.20;;;;;;;;;;5023238;28;20338;-55
2023/11/20 06:05:53;;;;;;;2.10;1.30;;;;;;;;;;5023635;28;20125;-54
2023/11/20 06:08:19;;;;;;;3.00;1.27;;;;;;;;;;5025153;28;20363;-54
2023/11/20 06:10:44;;;;;;;1.90;1.23;;;;;;;;;;5024665;28;20627;-54
2023/11/20 06:13:09;;;;;;;1.83;1.02;;;;;;;;;;5024937;28;20124;-54
2023/11/20 06:15:34;;;;;;;2.35;1.00;;;;;;;;;;5024639;28;20500;-56
2023/11/20 06:18:00;;;;;;;1.52;0.85;;;;;;;;;;5026749;28;20041;-56
2023/11/20 06:20:25;;;;;;;1.80;1.13;;;;;;;;;;5025034;28;20514;-55
2023/11/20 06:22:50;;;;;;;2.53;1.17;;;;;;;;;;5000959;28;20281;-54
2023/11/20 06:25:15;;;;;;;1.60;0.97;;;;;;;;;;5019652;28;20288;-57
2023/11/20 06:27:41;;;;;;;1.53;1.07;;;;;;;;;;5025169;28;20682;-54
2023/11/20 06:30:06;;;;;;;2.13;1.30;;;;;;;;;;5003480;28;20273;-54
2023/11/20 06:32:32;;;;;;;2.10;1.30;;;;;;;;;;5024941;28;20525;-54
2023/11/20 06:34:57;;;;;;;2.13;1.20;;;;;;;;;;5025120;28;20037;-55
2023/11/20 06:37:22;;;;;;;2.30;1.10;;;;;;;;;;5006452;28;20312;-55
2023/11/20 06:39:48;;;;;;;3.03;1.20;;;;;;;;;;5024309;28;20805;-54
2023/11/20 06:42:13;;;;;;;3.65;1.30;;;;;;;;;;5024169;28;20092;-54
2023/11/20 06:44:39;;;;;;;1.63;1.25;;;;;;;;;;5027007;28;20172;-54
2023/11/20 06:47:05;;;;;;;2.50;1.30;;;;;;;;;;5024409;28;20127;-54
2023/11/20 06:49:30;;;;;;;4.55;1.42;;;;;;;;;;5005039;28;20041;-55
2023/11/20 06:51:55;;;;;;;7.30;1.70;;;;;;;;;;5020823;28;20687;-55
2023/11/20 06:54:20;;;;;;;6.60;1.67;;;;;;;;;;5015074;28;20487;-55
2023/11/20 06:56:46;;;;;;;5.22;1.60;;;;;;;;;;5025525;28;20399;-55
2023/11/20 06:59:11;;;;;;;4.65;1.52;;;;;;;;;;5024523;28;20029;-55
2023/11/20 07:01:42;;;;;;;4.75;1.60;;;;;;;;;;5024129;28;20095;-55
2023/11/20 07:04:07;;;;;;;7.18;2.15;;;;;;;;;;5024729;28;20034;-56
2023/11/20 07:06:33;;;;;;;3.90;1.42;;;;;;;;;;5002380;28;20108;-55
2023/11/20 07:08:58;;;;;;;6.80;1.42;;;;;;;;;;5008738;28;20086;-54
2023/11/20 07:11:23;;;;;;;6.03;1.80;;;;;;;;;;5025309;28;20027;-54
2023/11/20 07:13:49;;;;;;;9.48;2.03;;;;;;;;;;5024832;28;20275;-55
2023/11/20 07:16:14;;;;;;;5.00;1.60;;;;;;;;;;5023597;28;20467;-56
2023/11/20 07:18:40;;;;;;;2.85;1.60;;;;;;;;;;5035455;28;20137;-55
2023/11/20 07:21:05;;;;;;;8.82;2.13;;;;;;;;;;5024355;28;20044;-55
2023/11/20 07:23:31;;;;;;;7.03;1.98;;;;;;;;;;5019755;28;20029;-55
2023/11/20 07:25:56;;;;;;;3.93;1.50;;;;;;;;;;5023199;28;20101;-55
2023/11/20 07:28:21;;;;;;;4.97;1.77;;;;;;;;;;5030416;28;20283;-55
2023/11/20 07:30:47;;;;;;;5.63;1.75;;;;;;;;;;5023573;28;20180;-55
2023/11/20 07:33:14;;;;;;;8.25;1.95;;;;;;;;;;5006073;28;20022;-58
2023/11/20 07:35:39;;;;;;;6.65;1.60;;;;;;;;;;5029474;28;20033;-57
2023/11/20 07:38:05;;;;;;;5.53;1.80;;;;;;;;;;5033659;28;20414;-56
2023/11/20 07:40:30;;;;;;;6.40;1.50;;;;;;;;;;5012041;28;20044;-56
2023/11/20 07:42:56;;;;;;;3.75;1.60;;;;;;;;;;5030021;28;20407;-56
2023/11/20 07:45:22;;;;;;;8.13;1.70;;;;;;;;;;5024189;28;20416;-54
2023/11/20 07:47:48;;;;;;;6.28;2.35;;;;;;;;;;5019184;28;20648;-53
2023/11/20 07:50:14;;;;;;;7.32;2.40;;;;;;;;;;5022301;28;20053;-54
2023/11/20 07:52:39;;;;;;;5.35;1.80;;;;;;;;;;5023532;28;20095;-55
2023/11/20 07:55:07;;;;;;;5.40;1.77;;;;;;;;;;5017411;28;20062;-53
2023/11/20 07:57:32;;;;;;;6.28;1.58;;;;;;;;;;5030118;28;20044;-53
2023/11/20 07:59:58;;;;;;;4.60;1.60;;;;;;;;;;5024305;28;20017;-53
2023/11/20 08:02:24;;;;;;;6.60;2.10;;;;;;;;;;5024571;28;20042;-54
2023/11/20 08:04:49;;;;;;;7.07;1.75;;;;;;;;;;5023347;28;20852;-55
2023/11/20 08:07:15;;;;;;;5.32;1.70;;;;;;;;;;5023828;28;20033;-53
2023/11/20 08:09:40;;;;;;;6.28;2.08;;;;;;;;;;5023270;28;20041;-55
2023/11/20 08:12:05;;;;;;;6.28;1.85;;;;;;;;;;5021699;28;20034;-54
2023/11/20 08:14:31;;;;;;;7.40;2.20;;;;;;;;;;5022494;28;20516;-54
2023/11/20 08:16:58;;;;;;;5.63;2.00;;;;;;;;;;5023532;28;20124;-54
2023/11/20 08:19:24;;;;;;;5.88;1.98;;;;;;;;;;5022512;28;20447;-54
2023/11/20 08:21:49;;;;;;;5.60;2.28;;;;;;;;;;5023419;28;20033;-53
2023/11/20 08:24:14;;;;;;;6.78;1.80;;;;;;;;;;5023420;28;20041;-54
2023/11/20 08:26:40;;;;;;;7.63;2.00;;;;;;;;;;5023455;28;20095;-55
2023/11/20 08:29:06;;;;;;;7.47;1.92;;;;;;;;;;5024016;28;20041;-54
2023/11/20 08:31:32;;;;;;;6.82;2.08;;;;;;;;;;5026555;28;20519;-53
2023/11/20 08:33:57;;;;;;;7.35;2.05;;;;;;;;;;5027615;28;20036;-53
2023/11/20 08:36:23;;;;;;;6.78;2.10;;;;;;;;;;5027360;28;20042;-53
2023/11/20 08:38:48;;;;;;;14.70;4.40;;;;;;;;;;5025456;28;20202;-53
2023/11/20 08:41:13;;;;;;;8.97;2.90;;;;;;;;;;5026612;28;20057;-54
2023/11/20 08:43:40;;;;;;;8.13;2.28;;;;;;;;;;5029199;28;21771;-54
2023/11/20 08:46:08;;;;;;;10.35;2.47;;;;;;;;;;5027615;28;20103;-59
2023/11/20 08:48:33;;;;;;;7.75;2.40;;;;;;;;;;5025999;28;20076;-54
2023/11/20 08:50:58;;;;;;;6.97;2.33;;;;;;;;;;5026916;28;20073;-54
2023/11/20 08:53:23;;;;;;;9.18;2.70;;;;;;;;;;5009086;28;20530;-54
2023/11/20 08:55:49;;;;;;;4.07;2.00;;;;;;;;;;5026615;28;20060;-54
2023/11/20 08:58:14;;;;;;;9.05;2.58;;;;;;;;;;5026555;28;20033;-54
2023/11/20 09:00:39;;;;;;;6.15;2.17;;;;;;;;;;5026581;28;20101;-55
2023/11/20 09:03:05;;;;;;;5.32;1.90;;;;;;;;;;5026875;28;20537;-54
2023/11/20 09:05:30;;;;;;;7.57;2.20;;;;;;;;;;5026919;28;20059;-54
2023/11/20 09:07:56;;;;;;;7.40;2.37;;;;;;;;;;5026576;28;20626;-54
2023/11/20 09:10:23;;;;;;;6.60;2.20;;;;;;;;;;5008013;28;20345;-54
2023/11/20 09:12:48;;;;;;;8.02;2.45;;;;;;;;;;5026010;28;20029;-54
2023/11/20 09:15:14;;;;;;;5.80;2.13;;;;;;;;;;5009138;28;20032;-53
2023/11/20 09:17:39;;;;;;;6.40;2.10;;;;;;;;;;5025665;28;20068;-52
2023/11/20 09:20:04;;;;;;;5.33;2.00;;;;;;;;;;5025929;28;20530;-53
2023/11/20 09:22:30;;;;;;;5.75;2.28;;;;;;;;;;5026251;28;20374;-53
2023/11/20 09:24:55;;;;;;;6.57;2.67;;;;;;;;;;5025851;28;20414;-54
2023/11/20 09:27:21;;;;;;;5.25;2.35;;;;;;;;;;5026347;28;20083;-53
2023/11/20 09:29:46;;;;;;;6.57;2.03;;;;;;;;;;5025991;28;20041;-53
2023/11/20 09:32:12;;;;;;;5.25;2.00;;;;;;;;;;5025566;28;20042;-54
2023/11/20 09:34:40;;;;;;;3.92;1.88;;;;;;;;;;5025901;28;20038;-54
2023/11/20 09:37:05;;;;;;;5.57;2.20;;;;;;;;;;5034471;28;20049;-54
2023/11/20 09:39:30;;;;;;;5.00;1.80;;;;;;;;;;5031728;28;20047;-55
2023/11/20 09:41:56;;;;;;;5.25;1.92;;;;;;;;;;5026184;28;20287;-54
2023/11/20 09:44:23;;;;;;;6.35;2.15;;;;;;;;;;5037399;28;20037;-55
2023/11/20 09:46:49;;;;;;;3.88;2.10;;;;;;;;;;5025602;28;20041;-54
2023/11/20 09:49:20;;;;;;;5.60;1.83;;;;;;;;;;5001968;28;20427;-54
2023/11/20 09:51:46;;;;;;;5.13;2.10;;;;;;;;;;5026001;28;20103;-55
2023/11/20 09:54:11;;;;;;;5.13;2.20;;;;;;;;;;4997504;28;20029;-53
2023/11/20 09:56:36;;;;;;;3.88;1.90;;;;;;;;;;5007075;28;20132;-53
2023/11/20 09:59:03;;;;;;;5.13;2.20;;;;;;;;;;5033256;28;20121;-53
2023/11/20 10:01:28;;;;;;;5.97;2.15;;;;;;;;;;5025755;28;20095;-54
2023/11/20 10:03:53;;;;;;;4.93;1.97;;;;;;;;;;5005096;28;20038;-54
2023/11/20 10:06:19;;;;;;;5.05;2.25;;;;;;;;;;5030119;28;20286;-55
2023/11/20 10:08:45;;;;;;;7.85;2.08;;;;;;;;;;5027383;28;20514;-55
2023/11/20 10:11:16;;;;;;;4.30;1.80;;;;;;;;;;5028896;28;20394;-55
2023/11/20 10:13:42;;;;;;;4.97;1.48;;;;;;;;;;5024789;28;20091;-55
2023/11/20 10:16:16;;;;;;;4.87;1.90;;;;;;;;;;5025505;28;20505;-55
2023/11/20 10:18:42;;;;;;;4.55;2.00;;;;;;;;;;5024894;28;20280;-54
2023/11/20 10:21:08;;;;;;;3.35;1.40;;;;;;;;;;5026054;28;20038;-55
2023/11/20 10:23:33;;;;;;;3.72;1.92;;;;;;;;;;5027889;28;20120;-57
2023/11/20 10:26:00;;;;;;;4.28;1.95;;;;;;;;;;4992443;28;20045;-54
2023/11/20 10:28:25;;;;;;;7.13;2.58;;;;;;;;;;5024366;28;20042;-55
2023/11/20 10:30:50;;;;;;;4.07;1.90;;;;;;;;;;5024705;28;20026;-55
2023/11/20 10:33:19;;;;;;;5.57;1.60;;;;;;;;;;5006018;28;20042;-55
2023/11/20 10:35:45;;;;;;;3.25;1.60;;;;;;;;;;5031742;28;20341;-55
2023/11/20 10:38:11;;;;;;;3.83;1.80;;;;;;;;;;5024450;28;20033;-55
2023/11/20 10:40:45;;;;;;;4.40;1.58;;;;;;;;;;5024629;28;20499;-54
2023/11/20 10:43:10;;;;;;;5.63;1.95;;;;;;;;;;5003770;28;20053;-55
2023/11/20 10:45:38;;;;;;;4.13;1.75;;;;;;;;;;5027689;28;20029;-54
2023/11/20 10:48:07;;;;;;;9.95;2.22;;;;;;;;;;5027546;28;20041;-54
2023/11/20 10:50:33;;;;;;;3.53;1.50;;;;;;;;;;5025818;28;20037;-54
2023/11/20 10:53:05;;;;;;;3.95;1.58;;;;;;;;;;5023455;28;20063;-54
2023/11/20 10:55:31;;;;;;;5.25;1.75;;;;;;;;;;5013903;28;20124;-54
2023/11/20 10:57:56;;;;;;;4.05;1.50;;;;;;;;;;5007055;28;20096;-54
2023/11/20 11:00:21;;;;;;;2.80;1.03;;;;;;;;;;5012735;28;20033;-54
2023/11/20 11:02:46;;;;;;;5.53;1.93;;;;;;;;;;5023784;28;20282;-55
2023/11/20 11:05:12;;;;;;;5.03;1.80;;;;;;;;;;5023967;28;20389;-55
2023/11/20 11:07:41;;;;;;;3.22;1.73;;;;;;;;;;5030850;28;20432;-54
2023/11/20 11:10:14;;;;;;;4.10;1.52;;;;;;;;;;5026850;28;20048;-54
2023/11/20 11:12:42;;;;;;;3.65;1.50;;;;;;;;;;5010083;28;20037;-55
2023/11/20 11:15:08;;;;;;;2.95;1.75;;;;;;;;;;5028115;28;20044;-55
2023/11/20 11:17:36;;;;;;;5.30;1.90;;;;;;;;;;5023545;28;20041;-53
2023/11/20 11:20:02;;;;;;;5.22;1.95;;;;;;;;;;5021676;28;20052;-56
2023/11/20 11:22:31;;;;;;;3.95;1.70;;;;;;;;;;5003655;28;20042;-54
2023/11/20 11:24:58;;;;;;;3.25;1.65;;;;;;;;;;5023183;28;20104;-53
2023/11/20 11:27:26;;;;;;;3.50;1.58;;;;;;;;;;5021011;28;20079;-53
2023/11/20 11:29:56;;;;;;;3.53;1.50;;;;;;;;;;5026111;28;20031;-54
2023/11/20 11:32:30;;;;;;;5.30;1.98;;;;;;;;;;5027926;28;20037;-56
2023/11/20 11:35:02;;;;;;;5.30;1.90;;;;;;;;;;5027122;28;20128;-54
2023/11/20 11:37:36;;;;;;;4.75;2.03;;;;;;;;;;5027131;28;20123;-54
2023/11/20 11:40:21;;;;;;;3.92;1.60;;;;;;;;;;5020947;28;20100;-54
2023/11/20 11:42:48;;;;;;;2.53;1.58;;;;;;;;;;5017355;28;20112;-54
2023/11/20 11:45:14;;;;;;;3.05;1.40;;;;;;;;;;5003541;28;20095;-54
2023/11/20 11:47:40;;;;;;;5.60;1.63;;;;;;;;;;5017831;28;20045;-54
2023/11/20 11:50:06;;;;;;;5.45;1.67;;;;;;;;;;5026175;28;20033;-54
2023/11/20 11:52:33;;;;;;;3.33;1.48;;;;;;;;;;5022488;28;20037;-55
2023/11/20 11:55:11;;;;;;;3.83;1.65;;;;;;;;;;5018302;28;20090;-55
2023/11/20 11:57:36;;;;;;;3.40;1.55;;;;;;;;;;5021854;28;20102;-55
2023/11/20 12:00:10;;;;;;;4.82;1.67;;;;;;;;;;5022403;28;20042;-54
2023/11/20 12:02:51;;;;;;;3.20;1.52;;;;;;;;;;5023471;28;20057;-54
2023/11/20 12:05:17;;;;;;;4.05;1.85;;;;;;;;;;5023738;28;20030;-54
2023/11/20 12:07:49;;;;;;;3.83;1.42;;;;;;;;;;5022003;28;20103;-54
2023/11/20 12:10:15;;;;;;;6.15;1.70;;;;;;;;;;5023830;28;20041;-54
2023/11/20 12:12:51;;;;;;;4.97;1.75;;;;;;;;;;5027121;28;20029;-53
2023/11/20 12:15:37;;;;;;;4.72;1.50;;;;;;;;;;5025305;28;20692;-53
2023/11/20 12:18:28;;;;;;;4.50;1.70;;;;;;;;;;5029870;28;20414;-53
2023/11/20 12:20:54;;;;;;;3.15;1.65;;;;;;;;;;5027882;28;20469;-55
2023/11/20 12:23:27;;;;;;;4.00;1.73;;;;;;;;;;5027330;28;20064;-54
2023/11/20 12:25:53;;;;;;;3.97;1.70;;;;;;;;;;5027263;28;20466;-54
2023/11/20 12:28:18;;;;;;;3.53;1.60;;;;;;;;;;5027795;28;20037;-54
2023/11/20 12:30:45;;;;;;;4.05;1.70;;;;;;;;;;4990073;28;20074;-54
2023/11/20 12:33:11;;;;;;;4.15;1.80;;;;;;;;;;5026468;28;20157;-53
2023/11/20 12:35:36;;;;;;;3.78;1.73;;;;;;;;;;5027195;28;20590;-54
2023/11/20 12:38:02;;;;;;;4.93;1.90;;;;;;;;;;5027405;28;20494;-54
2023/11/20 12:40:27;;;;;;;3.40;1.60;;;;;;;;;;5027038;28;20155;-54
2023/11/20 12:42:53;;;;;;;3.65;1.70;;;;;;;;;;5011370;28;20474;-54
2023/11/20 12:45:18;;;;;;;4.33;1.60;;;;;;;;;;5026209;28;20044;-54
2023/11/20 12:47:43;;;;;;;3.87;1.90;;;;;;;;;;5029987;28;20350;-54
2023/11/20 12:50:13;;;;;;;3.58;1.40;;;;;;;;;;5034538;28;20272;-55
2023/11/20 12:52:42;;;;;;;2.60;1.55;;;;;;;;;;5027399;28;20072;-55
2023/11/20 12:55:07;;;;;;;6.03;1.73;;;;;;;;;;5026968;28;20034;-55
2023/11/20 12:57:34;;;;;;;3.55;1.80;;;;;;;;;;5028034;28;20048;-55
2023/11/20 13:00:00;;;;;;;5.10;1.80;;;;;;;;;;5026148;28;20112;-54
2023/11/20 13:02:27;;;;;;;3.22;1.60;;;;;;;;;;5027111;28;20128;-54
2023/11/20 13:04:52;;;;;;;3.10;1.70;;;;;;;;;;5025741;28;20034;-54
2023/11/20 13:07:20;;;;;;;2.80;1.70;;;;;;;;;;5025373;28;20557;-54
2023/11/20 13:09:45;;;;;;;2.45;1.50;;;;;;;;;;5025848;28;20037;-55
2023/11/20 13:12:12;;;;;;;4.57;1.40;;;;;;;;;;5007369;28;20037;-54
2023/11/20 13:14:55;;;;;;;3.97;1.50;;;;;;;;;;5023625;28;20291;-55
2023/11/20 13:17:21;;;;;;;4.00;1.60;;;;;;;;;;5023866;28;20610;-54
2023/11/20 13:19:46;;;;;;;4.32;1.70;;;;;;;;;;5019908;28;20049;-53
2023/11/20 13:22:12;;;;;;;3.60;1.60;;;;;;;;;;5007608;28;20326;-53
2023/11/20 13:24:44;;;;;;;8.07;1.73;;;;;;;;;;5004079;28;20279;-55
2023/11/20 13:27:10;;;;;;;4.95;1.77;;;;;;;;;;5029347;28;20069;-54
2023/11/20 13:29:36;;;;;;;3.58;1.50;;;;;;;;;;5025068;28;20044;-56
2023/11/20 13:32:02;;;;;;;4.00;1.42;;;;;;;;;;5008811;28;20495;-56
2023/11/20 13:34:27;;;;;;;4.20;1.45;;;;;;;;;;5026190;28;20277;-55
2023/11/20 13:36:52;;;;;;;4.25;1.58;;;;;;;;;;5028338;28;20053;-54
2023/11/20 13:39:19;;;;;;;3.15;1.38;;;;;;;;;;5007505;28;20634;-54
2023/11/20 13:41:45;;;;;;;2.80;1.30;;;;;;;;;;5004918;28;20030;-55
2023/11/20 13:44:10;;;;;;;4.18;1.70;;;;;;;;;;5023802;28;20042;-54
2023/11/20 13:46:36;;;;;;;3.53;1.50;;;;;;;;;;5022656;28;20076;-56
2023/11/20 13:49:02;;;;;;;5.57;1.70;;;;;;;;;;5011356;28;20375;-55
2023/11/20 13:51:28;;;;;;;4.63;1.85;;;;;;;;;;5007384;28;20041;-54
2023/11/20 13:53:53;;;;;;;5.25;1.60;;;;;;;;;;5005127;28;20041;-54
2023/11/20 13:56:19;;;;;;;6.00;1.83;;;;;;;;;;5024508;28;20049;-54
2023/11/20 13:58:46;;;;;;;3.55;1.45;;;;;;;;;;5025149;28;20849;-54
2023/11/20 14:01:13;;;;;;;3.65;1.45;;;;;;;;;;5007706;28;20113;-54
2023/11/20 14:03:39;;;;;;;3.28;1.40;;;;;;;;;;5008157;28;20033;-56
2023/11/20 14:06:05;;;;;;;4.72;1.70;;;;;;;;;;5025222;28;20069;-55
2023/11/20 14:08:30;;;;;;;3.45;1.40;;;;;;;;;;5025180;28;20169;-55
2023/11/20 14:10:58;;;;;;;3.70;1.80;;;;;;;;;;5025334;28;20033;-55
2023/11/20 14:13:24;;;;;;;2.17;1.20;;;;;;;;;;5025358;28;20662;-54
2023/11/20 14:15:50;;;;;;;4.05;1.70;;;;;;;;;;5007574;28;20095;-55
2023/11/20 14:18:15;;;;;;;4.05;1.65;;;;;;;;;;5025692;28;20528;-55
2023/11/20 14:20:40;;;;;;;3.13;1.35;;;;;;;;;;5024944;28;20513;-54
2023/11/20 14:23:06;;;;;;;3.08;1.30;;;;;;;;;;5025351;28;20029;-55
2023/11/20 14:25:32;;;;;;;3.90;1.60;;;;;;;;;;5024748;28;20030;-54
2023/11/20 14:27:57;;;;;;;3.00;1.50;;;;;;;;;;5005522;28;20276;-54
2023/11/20 14:30:22;;;;;;;3.58;1.33;;;;;;;;;;5027402;28;20037;-55
2023/11/20 14:32:48;;;;;;;4.38;1.60;;;;;;;;;;5030078;28;20037;-55
2023/11/20 14:35:13;;;;;;;7.13;1.70;;;;;;;;;;5030319;28;20081;-54
2023/11/20 14:37:42;;;;;;;4.55;1.52;;;;;;;;;;5024019;28;20091;-55